Terminal Aerodrome Forecast
Issued by NWS Amarillo, TX

Home | Current Version | Previous Version | Text Only | Print | Product List | Glossary On
Versions: 1 2 3 4 5 6 7 8 9 10 11 12 13 14 15 16 17 18 19
000
FTUS44 KAMA 270300 AAA
TAFAMA
TAF AMD
KAMA 270339Z 2704/2724 35009KT P6SM SCT015
     FM270900 35009KT 5SM BR OVC010
     FM271800 36012KT P6SM SCT250=

USA.gov is the U.S. government's official web portal to all federal, state and local government web resources and services.